sensor_id;sensor_type;location;lat;lon;timestamp;temperature;humidity
43949;DHT22;29429;51.074;13.764;2022-11-11T00:02:26;5.70;99.90
43949;DHT22;29429;51.074;13.764;2022-11-11T00:05:12;5.70;99.90
43949;DHT22;29429;51.074;13.764;2022-11-11T00:07:57;5.60;99.90
43949;DHT22;29429;51.074;13.764;2022-11-11T00:10:45;5.80;99.90
43949;DHT22;29429;51.074;13.764;2022-11-11T00:13:32;5.70;99.90
43949;DHT22;29429;51.074;13.764;2022-11-11T00:16:19;5.90;99.90
43949;DHT22;29429;51.074;13.764;2022-11-11T00:19:05;5.80;99.90
43949;DHT22;29429;51.074;13.764;2022-11-11T00:22:19;5.70;99.90
43949;DHT22;29429;51.074;13.764;2022-11-11T00:25:24;5.80;99.90
43949;DHT22;29429;51.074;13.764;2022-11-11T00:28:10;5.70;99.90
43949;DHT22;29429;51.074;13.764;2022-11-11T00:31:03;5.70;99.90
43949;DHT22;29429;51.074;13.764;2022-11-11T00:33:51;5.70;99.90
43949;DHT22;29429;51.074;13.764;2022-11-11T00:36:38;5.60;99.90
43949;DHT22;29429;51.074;13.764;2022-11-11T00:39:29;5.60;99.90
43949;DHT22;29429;51.074;13.764;2022-11-11T00:42:14;5.60;99.90
43949;DHT22;29429;51.074;13.764;2022-11-11T00:45:00;5.60;99.90
43949;DHT22;29429;51.074;13.764;2022-11-11T00:47:45;5.50;99.90
43949;DHT22;29429;51.074;13.764;2022-11-11T00:50:49;5.50;99.90
43949;DHT22;29429;51.074;13.764;2022-11-11T00:53:44;5.50;99.90
43949;DHT22;29429;51.074;13.764;2022-11-11T00:56:30;5.50;99.90
43949;DHT22;29429;51.074;13.764;2022-11-11T00:59:16;5.40;99.90
43949;DHT22;29429;51.074;13.764;2022-11-11T01:02:01;5.50;99.90
43949;DHT22;29429;51.074;13.764;2022-11-11T01:04:47;5.40;99.90
43949;DHT22;29429;51.074;13.764;2022-11-11T01:07:33;5.30;99.90
43949;DHT22;29429;51.074;13.764;2022-11-11T01:10:19;5.30;99.90
43949;DHT22;29429;51.074;13.764;2022-11-11T01:13:29;5.20;99.90
43949;DHT22;29429;51.074;13.764;2022-11-11T01:16:19;5.20;99.90
43949;DHT22;29429;51.074;13.764;2022-11-11T01:19:07;5.10;99.90
43949;DHT22;29429;51.074;13.764;2022-11-11T01:21:53;5.10;99.90
43949;DHT22;29429;51.074;13.764;2022-11-11T01:24:38;5.20;99.90
43949;DHT22;29429;51.074;13.764;2022-11-11T01:27:24;5.10;99.90
43949;DHT22;29429;51.074;13.764;2022-11-11T01:30:10;5.20;99.90
43949;DHT22;29429;51.074;13.764;2022-11-11T01:32:58;5.20;99.90
43949;DHT22;29429;51.074;13.764;2022-11-11T01:35:45;5.20;99.90
43949;DHT22;29429;51.074;13.764;2022-11-11T01:38:30;5.20;99.90
43949;DHT22;29429;51.074;13.764;2022-11-11T01:41:19;5.20;99.90
43949;DHT22;29429;51.074;13.764;2022-11-11T01:44:40;5.20;99.90
43949;DHT22;29429;51.074;13.764;2022-11-11T01:47:29;5.20;99.90
43949;DHT22;29429;51.074;13.764;2022-11-11T01:50:56;5.20;99.90
43949;DHT22;29429;51.074;13.764;2022-11-11T01:53:43;5.20;99.90
43949;DHT22;29429;51.074;13.764;2022-11-11T01:56:30;5.30;99.90
43949;DHT22;29429;51.074;13.764;2022-11-11T01:59:16;5.20;99.90
43949;DHT22;29429;51.074;13.764;2022-11-11T02:02:17;5.20;99.90
43949;DHT22;29429;51.074;13.764;2022-11-11T02:05:09;5.10;99.90
43949;DHT22;29429;51.074;13.764;2022-11-11T02:08:25;5.10;99.90
43949;DHT22;29429;51.074;13.764;2022-11-11T02:11:20;5.10;99.90
43949;DHT22;29429;51.074;13.764;2022-11-11T02:14:26;5.10;99.90
43949;DHT22;29429;51.074;13.764;2022-11-11T02:17:22;5.10;99.90
43949;DHT22;29429;51.074;13.764;2022-11-11T02:20:11;5.10;99.90
43949;DHT22;29429;51.074;13.764;2022-11-11T02:23:31;5.00;99.90
43949;DHT22;29429;51.074;13.764;2022-11-11T02:26:21;5.00;99.90
43949;DHT22;29429;51.074;13.764;2022-11-11T02:29:12;5.00;99.90
43949;DHT22;29429;51.074;13.764;2022-11-11T02:32:00;5.00;99.90
43949;DHT22;29429;51.074;13.764;2022-11-11T02:34:46;5.00;99.90
43949;DHT22;29429;51.074;13.764;2022-11-11T02:37:31;5.00;99.90
43949;DHT22;29429;51.074;13.764;2022-11-11T02:40:32;5.00;99.90
43949;DHT22;29429;51.074;13.764;2022-11-11T02:43:21;4.90;99.90
43949;DHT22;29429;51.074;13.764;2022-11-11T02:46:07;5.00;99.90
43949;DHT22;29429;51.074;13.764;2022-11-11T02:48:53;5.00;99.90
43949;DHT22;29429;51.074;13.764;2022-11-11T02:51:38;5.00;99.90
43949;DHT22;29429;51.074;13.764;2022-11-11T02:54:24;5.00;99.90
43949;DHT22;29429;51.074;13.764;2022-11-11T02:57:12;5.10;99.90
43949;DHT22;29429;51.074;13.764;2022-11-11T02:59:59;5.10;99.90
43949;DHT22;29429;51.074;13.764;2022-11-11T03:02:45;5.10;99.90
43949;DHT22;29429;51.074;13.764;2022-11-11T03:05:31;5.20;99.90
43949;DHT22;29429;51.074;13.764;2022-11-11T03:08:17;5.10;99.90
43949;DHT22;29429;51.074;13.764;2022-11-11T03:11:03;5.10;99.90
43949;DHT22;29429;51.074;13.764;2022-11-11T03:13:48;5.20;99.90
43949;DHT22;29429;51.074;13.764;2022-11-11T03:16:34;5.20;99.90
43949;DHT22;29429;51.074;13.764;2022-11-11T03:19:38;5.20;99.90
43949;DHT22;29429;51.074;13.764;2022-11-11T03:22:24;5.20;99.90
43949;DHT22;29429;51.074;13.764;2022-11-11T03:25:30;5.20;99.90
43949;DHT22;29429;51.074;13.764;2022-11-11T03:28:25;5.20;99.90
43949;DHT22;29429;51.074;13.764;2022-11-11T03:31:10;5.20;99.90
43949;DHT22;29429;51.074;13.764;2022-11-11T03:33:56;5.20;99.90
43949;DHT22;29429;51.074;13.764;2022-11-11T03:37:03;5.10;99.90
43949;DHT22;29429;51.074;13.764;2022-11-11T03:40:08;5.10;99.90
43949;DHT22;29429;51.074;13.764;2022-11-11T03:42:55;5.10;99.90
43949;DHT22;29429;51.074;13.764;2022-11-11T03:45:49;5.20;99.90
43949;DHT22;29429;51.074;13.764;2022-11-11T03:48:35;5.00;99.90
43949;DHT22;29429;51.074;13.764;2022-11-11T03:51:21;5.10;99.90
43949;DHT22;29429;51.074;13.764;2022-11-11T03:54:06;5.10;99.90
43949;DHT22;29429;51.074;13.764;2022-11-11T03:56:52;5.00;99.90
43949;DHT22;29429;51.074;13.764;2022-11-11T03:59:58;5.00;99.90
43949;DHT22;29429;51.074;13.764;2022-11-11T04:02:44;5.00;99.90
43949;DHT22;29429;51.074;13.764;2022-11-11T04:05:48;4.90;99.90
43949;DHT22;29429;51.074;13.764;2022-11-11T04:08:52;4.90;99.90
43949;DHT22;29429;51.074;13.764;2022-11-11T04:11:57;4.90;99.90
43949;DHT22;29429;51.074;13.764;2022-11-11T04:14:42;4.80;99.90
43949;DHT22;29429;51.074;13.764;2022-11-11T04:17:46;4.80;99.90
43949;DHT22;29429;51.074;13.764;2022-11-11T04:20:32;4.90;99.90
43949;DHT22;29429;51.074;13.764;2022-11-11T04:23:36;4.80;99.90
43949;DHT22;29429;51.074;13.764;2022-11-11T04:26:22;4.80;99.90
43949;DHT22;29429;51.074;13.764;2022-11-11T04:29:07;4.70;99.90
43949;DHT22;29429;51.074;13.764;2022-11-11T04:32:14;4.80;99.90
43949;DHT22;29429;51.074;13.764;2022-11-11T04:35:19;4.70;99.90
43949;DHT22;29429;51.074;13.764;2022-11-11T04:38:06;4.70;99.90
43949;DHT22;29429;51.074;13.764;2022-11-11T04:41:11;4.70;99.90
43949;DHT22;29429;51.074;13.764;2022-11-11T04:43:57;4.80;99.90
43949;DHT22;29429;51.074;13.764;2022-11-11T04:47:01;5.00;99.90
43949;DHT22;29429;51.074;13.764;2022-11-11T04:49:47;4.80;99.90
43949;DHT22;29429;51.074;13.764;2022-11-11T04:52:32;4.80;99.90
43949;DHT22;29429;51.074;13.764;2022-11-11T04:55:17;4.80;99.90
43949;DHT22;29429;51.074;13.764;2022-11-11T04:58:25;4.90;99.90
43949;DHT22;29429;51.074;13.764;2022-11-11T05:01:13;4.90;99.90
43949;DHT22;29429;51.074;13.764;2022-11-11T05:04:18;4.90;99.90
43949;DHT22;29429;51.074;13.764;2022-11-11T05:07:04;4.90;99.90
43949;DHT22;29429;51.074;13.764;2022-11-11T05:10:08;4.90;99.90
43949;DHT22;29429;51.074;13.764;2022-11-11T05:12:54;4.90;99.90
43949;DHT22;29429;51.074;13.764;2022-11-11T05:16:10;4.90;99.90
43949;DHT22;29429;51.074;13.764;2022-11-11T05:19:19;4.90;99.90
43949;DHT22;29429;51.074;13.764;2022-11-11T05:22:38;4.90;99.90
43949;DHT22;29429;51.074;13.764;2022-11-11T05:25:25;4.90;99.90
43949;DHT22;29429;51.074;13.764;2022-11-11T05:28:10;4.90;99.90
43949;DHT22;29429;51.074;13.764;2022-11-11T05:30:55;4.90;99.90
43949;DHT22;29429;51.074;13.764;2022-11-11T05:33:41;4.90;99.90
43949;DHT22;29429;51.074;13.764;2022-11-11T05:36:26;4.90;99.90
43949;DHT22;29429;51.074;13.764;2022-11-11T05:39:12;4.90;99.90
43949;DHT22;29429;51.074;13.764;2022-11-11T05:41:57;4.80;99.90
43949;DHT22;29429;51.074;13.764;2022-11-11T05:44:43;4.90;99.90
43949;DHT22;29429;51.074;13.764;2022-11-11T05:47:28;4.90;99.90
43949;DHT22;29429;51.074;13.764;2022-11-11T05:50:14;5.10;99.90
43949;DHT22;29429;51.074;13.764;2022-11-11T05:53:00;5.00;99.90
43949;DHT22;29429;51.074;13.764;2022-11-11T05:55:45;5.00;99.90
43949;DHT22;29429;51.074;13.764;2022-11-11T05:58:31;5.10;99.90
43949;DHT22;29429;51.074;13.764;2022-11-11T06:01:17;5.20;99.90
43949;DHT22;29429;51.074;13.764;2022-11-11T06:04:03;5.10;99.90
43949;DHT22;29429;51.074;13.764;2022-11-11T06:06:49;5.10;99.90
43949;DHT22;29429;51.074;13.764;2022-11-11T06:09:34;5.10;99.90
43949;DHT22;29429;51.074;13.764;2022-11-11T06:12:20;5.20;99.90
43949;DHT22;29429;51.074;13.764;2022-11-11T06:15:05;5.10;99.90
43949;DHT22;29429;51.074;13.764;2022-11-11T06:17:51;5.10;99.90
43949;DHT22;29429;51.074;13.764;2022-11-11T06:20:37;5.10;99.90
43949;DHT22;29429;51.074;13.764;2022-11-11T06:23:23;5.10;99.90
43949;DHT22;29429;51.074;13.764;2022-11-11T06:26:13;5.10;99.90
43949;DHT22;29429;51.074;13.764;2022-11-11T06:28:59;5.10;99.90
43949;DHT22;29429;51.074;13.764;2022-11-11T06:31:45;5.30;99.90
43949;DHT22;29429;51.074;13.764;2022-11-11T06:34:30;5.10;99.90
43949;DHT22;29429;51.074;13.764;2022-11-11T06:37:15;5.10;99.90
43949;DHT22;29429;51.074;13.764;2022-11-11T06:40:01;5.20;99.90
43949;DHT22;29429;51.074;13.764;2022-11-11T06:42:46;5.20;99.90
43949;DHT22;29429;51.074;13.764;2022-11-11T06:45:31;5.30;99.90
43949;DHT22;29429;51.074;13.764;2022-11-11T06:48:20;5.30;99.90
43949;DHT22;29429;51.074;13.764;2022-11-11T06:51:08;5.60;99.90
43949;DHT22;29429;51.074;13.764;2022-11-11T06:53:56;5.50;99.90
43949;DHT22;29429;51.074;13.764;2022-11-11T06:56:41;5.50;99.90
43949;DHT22;29429;51.074;13.764;2022-11-11T06:59:54;5.70;99.90
43949;DHT22;29429;51.074;13.764;2022-11-11T07:02:45;5.70;99.90
43949;DHT22;29429;51.074;13.764;2022-11-11T07:05:32;5.80;99.90
43949;DHT22;29429;51.074;13.764;2022-11-11T07:08:18;6.00;99.90
43949;DHT22;29429;51.074;13.764;2022-11-11T07:11:04;6.10;99.90
43949;DHT22;29429;51.074;13.764;2022-11-11T07:14:00;6.20;99.90
43949;DHT22;29429;51.074;13.764;2022-11-11T07:16:45;6.30;99.90
43949;DHT22;29429;51.074;13.764;2022-11-11T07:19:31;7.00;99.90
43949;DHT22;29429;51.074;13.764;2022-11-11T07:22:17;6.60;99.90
43949;DHT22;29429;51.074;13.764;2022-11-11T07:25:03;6.60;99.90
43949;DHT22;29429;51.074;13.764;2022-11-11T07:27:49;6.80;99.90
43949;DHT22;29429;51.074;13.764;2022-11-11T07:30:42;6.90;99.90
43949;DHT22;29429;51.074;13.764;2022-11-11T07:33:27;7.00;99.90
43949;DHT22;29429;51.074;13.764;2022-11-11T07:36:12;7.00;99.90
43949;DHT22;29429;51.074;13.764;2022-11-11T07:38:58;7.10;99.90
43949;DHT22;29429;51.074;13.764;2022-11-11T07:41:52;7.20;99.90
43949;DHT22;29429;51.074;13.764;2022-11-11T07:44:38;7.30;99.90
43949;DHT22;29429;51.074;13.764;2022-11-11T07:47:29;7.40;99.90
43949;DHT22;29429;51.074;13.764;2022-11-11T07:50:14;7.50;99.90
43949;DHT22;29429;51.074;13.764;2022-11-11T07:53:00;7.60;99.90
43949;DHT22;29429;51.074;13.764;2022-11-11T07:55:45;7.80;99.90
43949;DHT22;29429;51.074;13.764;2022-11-11T07:58:31;7.90;99.90
43949;DHT22;29429;51.074;13.764;2022-11-11T08:01:17;8.00;99.90
43949;DHT22;29429;51.074;13.764;2022-11-11T08:04:03;8.10;99.90
43949;DHT22;29429;51.074;13.764;2022-11-11T08:06:48;8.20;99.90
43949;DHT22;29429;51.074;13.764;2022-11-11T08:09:33;8.30;99.90
43949;DHT22;29429;51.074;13.764;2022-11-11T08:12:19;8.30;99.90
43949;DHT22;29429;51.074;13.764;2022-11-11T08:15:23;8.40;99.90
43949;DHT22;29429;51.074;13.764;2022-11-11T08:18:09;8.40;99.90
43949;DHT22;29429;51.074;13.764;2022-11-11T08:20:55;8.40;99.90
43949;DHT22;29429;51.074;13.764;2022-11-11T08:23:42;8.30;99.90
43949;DHT22;29429;51.074;13.764;2022-11-11T08:26:47;8.20;99.90
43949;DHT22;29429;51.074;13.764;2022-11-11T08:29:34;8.10;99.90
43949;DHT22;29429;51.074;13.764;2022-11-11T08:32:19;8.00;99.90
43949;DHT22;29429;51.074;13.764;2022-11-11T08:35:05;7.90;99.90
43949;DHT22;29429;51.074;13.764;2022-11-11T08:37:52;7.90;99.90
43949;DHT22;29429;51.074;13.764;2022-11-11T08:40:38;7.80;99.90
43949;DHT22;29429;51.074;13.764;2022-11-11T08:43:24;7.80;99.90
43949;DHT22;29429;51.074;13.764;2022-11-11T08:46:10;7.70;99.90
43949;DHT22;29429;51.074;13.764;2022-11-11T08:48:56;7.70;99.90
43949;DHT22;29429;51.074;13.764;2022-11-11T08:51:41;7.80;99.90
43949;DHT22;29429;51.074;13.764;2022-11-11T08:54:29;7.90;99.90
43949;DHT22;29429;51.074;13.764;2022-11-11T08:57:14;8.00;99.90
43949;DHT22;29429;51.074;13.764;2022-11-11T09:00:00;8.00;99.90
43949;DHT22;29429;51.074;13.764;2022-11-11T09:02:46;8.10;99.90
43949;DHT22;29429;51.074;13.764;2022-11-11T09:05:31;8.00;99.90
43949;DHT22;29429;51.074;13.764;2022-11-11T09:08:17;8.30;99.90
43949;DHT22;29429;51.074;13.764;2022-11-11T09:11:03;8.40;99.90
43949;DHT22;29429;51.074;13.764;2022-11-11T09:13:49;8.80;99.90
43949;DHT22;29429;51.074;13.764;2022-11-11T09:16:34;9.10;99.90
43949;DHT22;29429;51.074;13.764;2022-11-11T09:19:20;9.30;99.90
43949;DHT22;29429;51.074;13.764;2022-11-11T09:22:05;9.60;99.90
43949;DHT22;29429;51.074;13.764;2022-11-11T09:24:51;9.70;99.90
43949;DHT22;29429;51.074;13.764;2022-11-11T09:27:58;10.10;99.90
43949;DHT22;29429;51.074;13.764;2022-11-11T09:30:44;10.20;99.90
43949;DHT22;29429;51.074;13.764;2022-11-11T09:33:55;10.40;99.90
43949;DHT22;29429;51.074;13.764;2022-11-11T09:36:41;10.60;99.90
43949;DHT22;29429;51.074;13.764;2022-11-11T09:39:27;10.70;99.90
43949;DHT22;29429;51.074;13.764;2022-11-11T09:42:47;10.80;99.90
43949;DHT22;29429;51.074;13.764;2022-11-11T09:55:01;10.60;99.90
43949;DHT22;29429;51.074;13.764;2022-11-11T09:58:12;10.60;99.90
43949;DHT22;29429;51.074;13.764;2022-11-11T10:01:27;10.50;99.90
43949;DHT22;29429;51.074;13.764;2022-11-11T10:08:00;10.20;99.90
43949;DHT22;29429;51.074;13.764;2022-11-11T10:10:53;10.00;99.90
43949;DHT22;29429;51.074;13.764;2022-11-11T10:13:39;9.90;99.90
43949;DHT22;29429;51.074;13.764;2022-11-11T10:20:14;9.80;99.90
43949;DHT22;29429;51.074;13.764;2022-11-11T10:23:16;9.80;99.90
43949;DHT22;29429;51.074;13.764;2022-11-11T10:26:11;9.80;99.90
43949;DHT22;29429;51.074;13.764;2022-11-11T10:29:21;10.00;99.90
43949;DHT22;29429;51.074;13.764;2022-11-11T10:35:19;10.30;99.90
43949;DHT22;29429;51.074;13.764;2022-11-11T10:41:42;10.50;99.90
43949;DHT22;29429;51.074;13.764;2022-11-11T10:44:32;10.50;99.90
43949;DHT22;29429;51.074;13.764;2022-11-11T10:50:50;10.50;99.90
43949;DHT22;29429;51.074;13.764;2022-11-11T10:57:02;10.50;99.90
43949;DHT22;29429;51.074;13.764;2022-11-11T10:59:56;10.70;99.90
43949;DHT22;29429;51.074;13.764;2022-11-11T11:02:54;10.70;99.90
43949;DHT22;29429;51.074;13.764;2022-11-11T11:05:51;10.80;99.90
43949;DHT22;29429;51.074;13.764;2022-11-11T11:12:17;10.90;99.90
43949;DHT22;29429;51.074;13.764;2022-11-11T11:15:22;11.00;99.90
43949;DHT22;29429;51.074;13.764;2022-11-11T11:18:13;11.10;99.90
43949;DHT22;29429;51.074;13.764;2022-11-11T11:21:05;11.10;99.90
43949;DHT22;29429;51.074;13.764;2022-11-11T11:23:51;11.10;99.90
43949;DHT22;29429;51.074;13.764;2022-11-11T11:26:45;11.10;99.90
43949;DHT22;29429;51.074;13.764;2022-11-11T11:32:27;11.10;99.90
43949;DHT22;29429;51.074;13.764;2022-11-11T11:38:43;11.20;99.90
43949;DHT22;29429;51.074;13.764;2022-11-11T11:41:43;11.20;99.90
43949;DHT22;29429;51.074;13.764;2022-11-11T11:44:36;11.30;99.90
43949;DHT22;29429;51.074;13.764;2022-11-11T12:00:29;11.80;99.90
43949;DHT22;29429;51.074;13.764;2022-11-11T12:07:12;12.20;99.90
43949;DHT22;29429;51.074;13.764;2022-11-11T12:10:23;12.40;99.90
43949;DHT22;29429;51.074;13.764;2022-11-11T12:13:58;12.60;99.90
43949;DHT22;29429;51.074;13.764;2022-11-11T12:17:23;12.60;99.90
43949;DHT22;29429;51.074;13.764;2022-11-11T12:20:44;12.70;99.90
43949;DHT22;29429;51.074;13.764;2022-11-11T12:30:27;12.90;99.90
43949;DHT22;29429;51.074;13.764;2022-11-11T12:43:49;13.00;99.90
43949;DHT22;29429;51.074;13.764;2022-11-11T12:53:32;12.90;99.90
43949;DHT22;29429;51.074;13.764;2022-11-11T13:00:09;12.80;99.90
43949;DHT22;29429;51.074;13.764;2022-11-11T13:03:38;12.70;99.90
43949;DHT22;29429;51.074;13.764;2022-11-11T13:06:46;12.70;99.90
43949;DHT22;29429;51.074;13.764;2022-11-11T13:09:49;12.70;99.90
43949;DHT22;29429;51.074;13.764;2022-11-11T13:12:53;12.60;99.90
43949;DHT22;29429;51.074;13.764;2022-11-11T13:16:01;12.60;99.90
43949;DHT22;29429;51.074;13.764;2022-11-11T13:22:16;12.60;99.90
43949;DHT22;29429;51.074;13.764;2022-11-11T13:25:12;12.60;99.90
43949;DHT22;29429;51.074;13.764;2022-11-11T13:28:06;12.50;99.90
43949;DHT22;29429;51.074;13.764;2022-11-11T13:31:43;12.50;99.90
43949;DHT22;29429;51.074;13.764;2022-11-11T13:34:13;12.50;99.90
43949;DHT22;29429;51.074;13.764;2022-11-11T13:37:03;12.50;99.90
43949;DHT22;29429;51.074;13.764;2022-11-11T13:39:51;12.40;99.90
43949;DHT22;29429;51.074;13.764;2022-11-11T13:42:49;12.40;99.90
43949;DHT22;29429;51.074;13.764;2022-11-11T13:45:40;12.30;99.90
43949;DHT22;29429;51.074;13.764;2022-11-11T13:48:29;12.30;99.90
43949;DHT22;29429;51.074;13.764;2022-11-11T13:51:42;12.30;99.90
43949;DHT22;29429;51.074;13.764;2022-11-11T13:54:36;12.20;99.90
43949;DHT22;29429;51.074;13.764;2022-11-11T13:57:27;12.20;99.90
43949;DHT22;29429;51.074;13.764;2022-11-11T14:08:59;12.10;99.90
43949;DHT22;29429;51.074;13.764;2022-11-11T14:11:45;12.00;99.90
43949;DHT22;29429;51.074;13.764;2022-11-11T14:17:17;12.00;99.90
43949;DHT22;29429;51.074;13.764;2022-11-11T14:20:39;11.90;99.90
43949;DHT22;29429;51.074;13.764;2022-11-11T14:26:24;11.80;99.90
43949;DHT22;29429;51.074;13.764;2022-11-11T14:29:19;11.70;99.90
43949;DHT22;29429;51.074;13.764;2022-11-11T14:35:56;11.60;99.90
43949;DHT22;29429;51.074;13.764;2022-11-11T14:39:00;11.50;99.90
43949;DHT22;29429;51.074;13.764;2022-11-11T14:41:51;11.40;99.90
43949;DHT22;29429;51.074;13.764;2022-11-11T14:44:52;11.30;99.90
43949;DHT22;29429;51.074;13.764;2022-11-11T14:47:41;11.20;99.90
43949;DHT22;29429;51.074;13.764;2022-11-11T14:53:34;11.10;99.90
43949;DHT22;29429;51.074;13.764;2022-11-11T14:56:23;11.00;99.90
43949;DHT22;29429;51.074;13.764;2022-11-11T14:59:12;10.90;99.90
43949;DHT22;29429;51.074;13.764;2022-11-11T15:02:27;10.80;99.90
43949;DHT22;29429;51.074;13.764;2022-11-11T15:08:25;10.60;99.90
43949;DHT22;29429;51.074;13.764;2022-11-11T15:11:43;10.40;99.90
43949;DHT22;29429;51.074;13.764;2022-11-11T15:27:39;10.00;99.90
43949;DHT22;29429;51.074;13.764;2022-11-11T15:30:56;9.80;99.90
43949;DHT22;29429;51.074;13.764;2022-11-11T15:40:06;9.60;99.90
43949;DHT22;29429;51.074;13.764;2022-11-11T15:43:22;9.50;99.90
43949;DHT22;29429;51.074;13.764;2022-11-11T15:46:24;9.40;99.90
43949;DHT22;29429;51.074;13.764;2022-11-11T15:52:31;9.30;99.90
43949;DHT22;29429;51.074;13.764;2022-11-11T15:58:31;9.30;99.90
43949;DHT22;29429;51.074;13.764;2022-11-11T16:01:18;9.20;99.90
43949;DHT22;29429;51.074;13.764;2022-11-11T16:04:18;9.10;99.90
43949;DHT22;29429;51.074;13.764;2022-11-11T16:07:30;9.10;99.90
43949;DHT22;29429;51.074;13.764;2022-11-11T16:10:27;9.00;99.90
43949;DHT22;29429;51.074;13.764;2022-11-11T16:13:34;9.00;99.90
43949;DHT22;29429;51.074;13.764;2022-11-11T16:16:29;8.90;99.90
43949;DHT22;29429;51.074;13.764;2022-11-11T16:19:28;8.90;99.90
43949;DHT22;29429;51.074;13.764;2022-11-11T16:22:35;8.80;99.90
43949;DHT22;29429;51.074;13.764;2022-11-11T16:25:24;8.70;99.90
43949;DHT22;29429;51.074;13.764;2022-11-11T16:28:46;8.60;99.90
43949;DHT22;29429;51.074;13.764;2022-11-11T16:31:59;8.70;99.90
43949;DHT22;29429;51.074;13.764;2022-11-11T16:34:54;8.60;99.90
43949;DHT22;29429;51.074;13.764;2022-11-11T16:37:53;8.60;99.90
43949;DHT22;29429;51.074;13.764;2022-11-11T16:40:46;8.50;99.90
43949;DHT22;29429;51.074;13.764;2022-11-11T16:43:40;8.50;99.90
43949;DHT22;29429;51.074;13.764;2022-11-11T16:49:41;8.40;99.90
43949;DHT22;29429;51.074;13.764;2022-11-11T16:52:27;8.40;99.90
43949;DHT22;29429;51.074;13.764;2022-11-11T16:58:25;8.30;99.90
43949;DHT22;29429;51.074;13.764;2022-11-11T17:01:12;8.20;99.90
43949;DHT22;29429;51.074;13.764;2022-11-11T17:04:08;8.20;99.90
43949;DHT22;29429;51.074;13.764;2022-11-11T17:06:56;8.20;99.90
43949;DHT22;29429;51.074;13.764;2022-11-11T17:09:45;8.10;99.90
43949;DHT22;29429;51.074;13.764;2022-11-11T17:12:31;8.10;99.90
43949;DHT22;29429;51.074;13.764;2022-11-11T17:15:19;8.10;99.90
43949;DHT22;29429;51.074;13.764;2022-11-11T17:18:06;8.00;99.90
43949;DHT22;29429;51.074;13.764;2022-11-11T17:20:53;8.00;99.90
43949;DHT22;29429;51.074;13.764;2022-11-11T17:23:41;7.90;99.90
43949;DHT22;29429;51.074;13.764;2022-11-11T17:26:26;7.90;99.90
43949;DHT22;29429;51.074;13.764;2022-11-11T17:29:29;7.80;99.90
43949;DHT22;29429;51.074;13.764;2022-11-11T17:32:23;7.80;99.90
43949;DHT22;29429;51.074;13.764;2022-11-11T17:35:09;7.70;99.90
43949;DHT22;29429;51.074;13.764;2022-11-11T17:38:04;7.60;99.90
43949;DHT22;29429;51.074;13.764;2022-11-11T17:40:51;7.50;99.90
43949;DHT22;29429;51.074;13.764;2022-11-11T17:43:38;7.40;99.90
43949;DHT22;29429;51.074;13.764;2022-11-11T17:46:23;7.40;99.90
43949;DHT22;29429;51.074;13.764;2022-11-11T17:49:10;7.40;99.90
43949;DHT22;29429;51.074;13.764;2022-11-11T17:52:01;7.40;99.90
43949;DHT22;29429;51.074;13.764;2022-11-11T17:54:46;7.40;99.90
43949;DHT22;29429;51.074;13.764;2022-11-11T17:57:31;7.30;99.90
43949;DHT22;29429;51.074;13.764;2022-11-11T18:00:17;7.30;99.90
43949;DHT22;29429;51.074;13.764;2022-11-11T18:03:03;7.30;99.90
43949;DHT22;29429;51.074;13.764;2022-11-11T18:05:52;7.20;99.90
43949;DHT22;29429;51.074;13.764;2022-11-11T18:08:38;7.20;99.90
43949;DHT22;29429;51.074;13.764;2022-11-11T18:11:24;7.10;99.90
43949;DHT22;29429;51.074;13.764;2022-11-11T18:14:10;7.30;99.90
43949;DHT22;29429;51.074;13.764;2022-11-11T18:16:56;7.10;99.90
43949;DHT22;29429;51.074;13.764;2022-11-11T18:19:41;7.10;99.90
43949;DHT22;29429;51.074;13.764;2022-11-11T18:22:27;7.10;99.90
43949;DHT22;29429;51.074;13.764;2022-11-11T18:25:13;7.10;99.90
43949;DHT22;29429;51.074;13.764;2022-11-11T18:27:59;7.10;99.90
43949;DHT22;29429;51.074;13.764;2022-11-11T18:30:44;7.00;99.90
43949;DHT22;29429;51.074;13.764;2022-11-11T18:33:30;6.90;99.90
43949;DHT22;29429;51.074;13.764;2022-11-11T18:36:18;7.00;99.90
43949;DHT22;29429;51.074;13.764;2022-11-11T18:39:07;7.10;99.90
43949;DHT22;29429;51.074;13.764;2022-11-11T18:41:53;6.90;99.90
43949;DHT22;29429;51.074;13.764;2022-11-11T18:44:39;6.90;99.90
43949;DHT22;29429;51.074;13.764;2022-11-11T18:47:24;6.90;99.90
43949;DHT22;29429;51.074;13.764;2022-11-11T18:50:10;6.70;99.90
43949;DHT22;29429;51.074;13.764;2022-11-11T18:52:55;6.80;99.90
43949;DHT22;29429;51.074;13.764;2022-11-11T18:55:41;6.90;99.90
43949;DHT22;29429;51.074;13.764;2022-11-11T18:58:26;6.70;99.90
43949;DHT22;29429;51.074;13.764;2022-11-11T19:01:14;6.70;99.90
43949;DHT22;29429;51.074;13.764;2022-11-11T19:04:10;6.60;99.90
43949;DHT22;29429;51.074;13.764;2022-11-11T19:06:56;6.70;99.90
43949;DHT22;29429;51.074;13.764;2022-11-11T19:09:44;6.60;99.90
43949;DHT22;29429;51.074;13.764;2022-11-11T19:12:29;6.50;99.90
43949;DHT22;29429;51.074;13.764;2022-11-11T19:15:15;6.50;99.90
43949;DHT22;29429;51.074;13.764;2022-11-11T19:18:01;6.50;99.90
43949;DHT22;29429;51.074;13.764;2022-11-11T19:20:47;6.50;99.90
43949;DHT22;29429;51.074;13.764;2022-11-11T19:23:34;6.40;99.90
43949;DHT22;29429;51.074;13.764;2022-11-11T19:26:22;6.40;99.90
43949;DHT22;29429;51.074;13.764;2022-11-11T19:29:10;6.40;99.90
43949;DHT22;29429;51.074;13.764;2022-11-11T19:31:56;6.30;99.90
43949;DHT22;29429;51.074;13.764;2022-11-11T19:34:42;6.30;99.90
43949;DHT22;29429;51.074;13.764;2022-11-11T19:37:28;6.30;99.90
43949;DHT22;29429;51.074;13.764;2022-11-11T19:40:13;6.30;99.90
43949;DHT22;29429;51.074;13.764;2022-11-11T19:42:58;6.30;99.90
43949;DHT22;29429;51.074;13.764;2022-11-11T19:45:44;6.30;99.90
43949;DHT22;29429;51.074;13.764;2022-11-11T19:48:31;6.30;99.90
43949;DHT22;29429;51.074;13.764;2022-11-11T19:51:19;6.30;99.90
43949;DHT22;29429;51.074;13.764;2022-11-11T19:54:09;6.30;99.90
43949;DHT22;29429;51.074;13.764;2022-11-11T19:56:55;6.40;99.90
43949;DHT22;29429;51.074;13.764;2022-11-11T19:59:41;6.20;99.90
43949;DHT22;29429;51.074;13.764;2022-11-11T20:02:27;6.20;99.90
43949;DHT22;29429;51.074;13.764;2022-11-11T20:05:13;6.30;99.90
43949;DHT22;29429;51.074;13.764;2022-11-11T20:07:59;6.20;99.90
43949;DHT22;29429;51.074;13.764;2022-11-11T20:10:45;6.20;99.90
43949;DHT22;29429;51.074;13.764;2022-11-11T20:13:31;6.20;99.90
43949;DHT22;29429;51.074;13.764;2022-11-11T20:16:18;6.30;99.90
43949;DHT22;29429;51.074;13.764;2022-11-11T20:19:04;6.20;99.90
43949;DHT22;29429;51.074;13.764;2022-11-11T20:21:50;6.20;99.90
43949;DHT22;29429;51.074;13.764;2022-11-11T20:24:36;6.20;99.90
43949;DHT22;29429;51.074;13.764;2022-11-11T20:27:23;6.20;99.90